sensor_id;sensor_type;location;lat;lon;timestamp;P1;durP1;ratioP1;P2;durP2;ratioP2
68938;SDS011;59064;45.294;11.816;2022-11-20T00:00:46;9.30;;;5.70;;
68938;SDS011;59064;45.294;11.816;2022-11-20T00:03:12;11.10;;;6.00;;
68938;SDS011;59064;45.294;11.816;2022-11-20T00:05:38;9.40;;;6.00;;
68938;SDS011;59064;45.294;11.816;2022-11-20T00:08:03;11.00;;;6.30;;
68938;SDS011;59064;45.294;11.816;2022-11-20T00:10:29;11.40;;;6.20;;
68938;SDS011;59064;45.294;11.816;2022-11-20T00:12:55;8.30;;;5.30;;
68938;SDS011;59064;45.294;11.816;2022-11-20T00:15:20;9.80;;;6.00;;
68938;SDS011;59064;45.294;11.816;2022-11-20T00:17:45;8.90;;;5.70;;
68938;SDS011;59064;45.294;11.816;2022-11-20T00:20:11;8.80;;;5.50;;
68938;SDS011;59064;45.294;11.816;2022-11-20T00:22:38;7.20;;;4.60;;
68938;SDS011;59064;45.294;11.816;2022-11-20T00:25:03;8.80;;;5.40;;
68938;SDS011;59064;45.294;11.816;2022-11-20T00:27:29;10.00;;;5.80;;
68938;SDS011;59064;45.294;11.816;2022-11-20T00:29:54;8.70;;;5.30;;
68938;SDS011;59064;45.294;11.816;2022-11-20T00:32:20;8.10;;;5.20;;
68938;SDS011;59064;45.294;11.816;2022-11-20T00:34:46;9.20;;;5.40;;
68938;SDS011;59064;45.294;11.816;2022-11-20T00:37:11;7.90;;;5.30;;
68938;SDS011;59064;45.294;11.816;2022-11-20T00:39:36;8.50;;;5.40;;
68938;SDS011;59064;45.294;11.816;2022-11-20T00:42:02;8.70;;;5.60;;
68938;SDS011;59064;45.294;11.816;2022-11-20T00:44:28;8.80;;;5.30;;
68938;SDS011;59064;45.294;11.816;2022-11-20T00:46:53;9.10;;;5.40;;
68938;SDS011;59064;45.294;11.816;2022-11-20T00:49:19;8.40;;;5.00;;
68938;SDS011;59064;45.294;11.816;2022-11-20T00:51:44;7.80;;;5.10;;
68938;SDS011;59064;45.294;11.816;2022-11-20T00:54:09;9.80;;;5.70;;
68938;SDS011;59064;45.294;11.816;2022-11-20T00:56:35;7.60;;;5.00;;
68938;SDS011;59064;45.294;11.816;2022-11-20T00:59:00;7.90;;;4.80;;
68938;SDS011;59064;45.294;11.816;2022-11-20T01:01:26;8.50;;;5.60;;
68938;SDS011;59064;45.294;11.816;2022-11-20T01:03:55;7.70;;;5.00;;
68938;SDS011;59064;45.294;11.816;2022-11-20T01:06:23;7.40;;;4.60;;
68938;SDS011;59064;45.294;11.816;2022-11-20T01:08:52;8.30;;;5.30;;
68938;SDS011;59064;45.294;11.816;2022-11-20T01:11:21;9.10;;;5.10;;
68938;SDS011;59064;45.294;11.816;2022-11-20T01:13:49;7.40;;;4.70;;
68938;SDS011;59064;45.294;11.816;2022-11-20T01:16:19;8.50;;;5.10;;
68938;SDS011;59064;45.294;11.816;2022-11-20T01:18:46;7.10;;;4.60;;
68938;SDS011;59064;45.294;11.816;2022-11-20T01:21:17;7.50;;;4.60;;
68938;SDS011;59064;45.294;11.816;2022-11-20T01:23:45;8.20;;;4.90;;
68938;SDS011;59064;45.294;11.816;2022-11-20T01:26:15;7.80;;;4.60;;
68938;SDS011;59064;45.294;11.816;2022-11-20T01:28:43;7.70;;;4.70;;
68938;SDS011;59064;45.294;11.816;2022-11-20T01:33:53;7.20;;;4.50;;
68938;SDS011;59064;45.294;11.816;2022-11-20T01:36:21;8.20;;;4.50;;
68938;SDS011;59064;45.294;11.816;2022-11-20T01:38:50;7.30;;;4.60;;
68938;SDS011;59064;45.294;11.816;2022-11-20T01:41:16;6.60;;;4.10;;
68938;SDS011;59064;45.294;11.816;2022-11-20T01:44:01;5.40;;;3.20;;
68938;SDS011;59064;45.294;11.816;2022-11-20T01:46:27;6.80;;;3.80;;
68938;SDS011;59064;45.294;11.816;2022-11-20T01:52:13;6.40;;;3.90;;
68938;SDS011;59064;45.294;11.816;2022-11-20T01:54:44;7.40;;;3.80;;
68938;SDS011;59064;45.294;11.816;2022-11-20T01:57:18;7.10;;;4.20;;
68938;SDS011;59064;45.294;11.816;2022-11-20T01:59:48;6.30;;;3.20;;
68938;SDS011;59064;45.294;11.816;2022-11-20T02:02:20;5.50;;;3.40;;
68938;SDS011;59064;45.294;11.816;2022-11-20T02:04:47;7.90;;;4.40;;
68938;SDS011;59064;45.294;11.816;2022-11-20T02:07:14;5.60;;;3.90;;
68938;SDS011;59064;45.294;11.816;2022-11-20T02:09:40;6.40;;;3.70;;
68938;SDS011;59064;45.294;11.816;2022-11-20T02:12:06;7.30;;;4.10;;
68938;SDS011;59064;45.294;11.816;2022-11-20T02:14:51;7.10;;;4.00;;
68938;SDS011;59064;45.294;11.816;2022-11-20T02:17:17;7.10;;;3.80;;
68938;SDS011;59064;45.294;11.816;2022-11-20T02:19:42;6.50;;;3.50;;
68938;SDS011;59064;45.294;11.816;2022-11-20T02:22:10;6.50;;;3.80;;
68938;SDS011;59064;45.294;11.816;2022-11-20T02:24:38;6.00;;;3.90;;
68938;SDS011;59064;45.294;11.816;2022-11-20T02:27:06;7.00;;;3.80;;
68938;SDS011;59064;45.294;11.816;2022-11-20T02:30:08;8.00;;;4.00;;
68938;SDS011;59064;45.294;11.816;2022-11-20T02:32:28;6.30;;;3.90;;
68938;SDS011;59064;45.294;11.816;2022-11-20T02:34:55;6.70;;;3.60;;
68938;SDS011;59064;45.294;11.816;2022-11-20T02:37:21;6.40;;;3.80;;
68938;SDS011;59064;45.294;11.816;2022-11-20T02:39:49;6.80;;;4.00;;
68938;SDS011;59064;45.294;11.816;2022-11-20T02:42:16;5.80;;;3.60;;
68938;SDS011;59064;45.294;11.816;2022-11-20T02:44:42;8.00;;;4.30;;
68938;SDS011;59064;45.294;11.816;2022-11-20T02:47:07;8.00;;;4.50;;
68938;SDS011;59064;45.294;11.816;2022-11-20T02:49:33;7.20;;;4.10;;
68938;SDS011;59064;45.294;11.816;2022-11-20T02:51:58;7.80;;;4.10;;
68938;SDS011;59064;45.294;11.816;2022-11-20T02:54:24;7.40;;;4.50;;
68938;SDS011;59064;45.294;11.816;2022-11-20T02:56:50;7.00;;;4.10;;
68938;SDS011;59064;45.294;11.816;2022-11-20T02:59:16;7.20;;;4.30;;
68938;SDS011;59064;45.294;11.816;2022-11-20T03:01:42;5.90;;;3.30;;
68938;SDS011;59064;45.294;11.816;2022-11-20T03:04:07;8.30;;;4.40;;
68938;SDS011;59064;45.294;11.816;2022-11-20T03:06:33;7.20;;;4.30;;
68938;SDS011;59064;45.294;11.816;2022-11-20T03:08:59;6.20;;;3.80;;
68938;SDS011;59064;45.294;11.816;2022-11-20T03:11:25;6.90;;;4.10;;
68938;SDS011;59064;45.294;11.816;2022-11-20T03:13:50;6.90;;;4.20;;
68938;SDS011;59064;45.294;11.816;2022-11-20T03:16:17;6.50;;;4.00;;
68938;SDS011;59064;45.294;11.816;2022-11-20T03:18:44;6.80;;;4.00;;
68938;SDS011;59064;45.294;11.816;2022-11-20T03:21:10;6.20;;;4.20;;
68938;SDS011;59064;45.294;11.816;2022-11-20T03:23:37;7.50;;;4.30;;
68938;SDS011;59064;45.294;11.816;2022-11-20T03:26:10;6.70;;;3.80;;
68938;SDS011;59064;45.294;11.816;2022-11-20T03:28:41;5.80;;;3.30;;
68938;SDS011;59064;45.294;11.816;2022-11-20T03:31:12;7.00;;;4.10;;
68938;SDS011;59064;45.294;11.816;2022-11-20T03:33:40;5.80;;;3.80;;
68938;SDS011;59064;45.294;11.816;2022-11-20T03:36:11;5.10;;;3.20;;
68938;SDS011;59064;45.294;11.816;2022-11-20T03:38:37;5.70;;;3.10;;
68938;SDS011;59064;45.294;11.816;2022-11-20T03:41:04;6.80;;;3.70;;
68938;SDS011;59064;45.294;11.816;2022-11-20T03:43:32;6.60;;;3.40;;
68938;SDS011;59064;45.294;11.816;2022-11-20T03:45:58;5.60;;;3.20;;
68938;SDS011;59064;45.294;11.816;2022-11-20T03:48:24;5.60;;;3.40;;
68938;SDS011;59064;45.294;11.816;2022-11-20T03:50:50;5.30;;;3.10;;
68938;SDS011;59064;45.294;11.816;2022-11-20T03:53:16;6.00;;;3.40;;
68938;SDS011;59064;45.294;11.816;2022-11-20T03:55:42;5.50;;;3.00;;
68938;SDS011;59064;45.294;11.816;2022-11-20T03:58:08;6.80;;;2.90;;
68938;SDS011;59064;45.294;11.816;2022-11-20T04:00:34;5.90;;;3.40;;
68938;SDS011;59064;45.294;11.816;2022-11-20T04:03:01;5.20;;;3.40;;
68938;SDS011;59064;45.294;11.816;2022-11-20T04:05:27;4.80;;;2.80;;
68938;SDS011;59064;45.294;11.816;2022-11-20T04:07:52;5.50;;;3.00;;
68938;SDS011;59064;45.294;11.816;2022-11-20T04:10:18;4.80;;;2.60;;
68938;SDS011;59064;45.294;11.816;2022-11-20T04:12:44;5.60;;;2.70;;
68938;SDS011;59064;45.294;11.816;2022-11-20T04:15:09;4.70;;;2.70;;
68938;SDS011;59064;45.294;11.816;2022-11-20T04:17:36;4.80;;;2.70;;
68938;SDS011;59064;45.294;11.816;2022-11-20T04:20:01;5.30;;;2.70;;
68938;SDS011;59064;45.294;11.816;2022-11-20T04:22:28;5.10;;;2.90;;
68938;SDS011;59064;45.294;11.816;2022-11-20T04:24:53;5.50;;;3.40;;
68938;SDS011;59064;45.294;11.816;2022-11-20T04:27:19;4.80;;;2.60;;
68938;SDS011;59064;45.294;11.816;2022-11-20T04:29:44;5.60;;;2.80;;
68938;SDS011;59064;45.294;11.816;2022-11-20T04:32:10;4.30;;;2.30;;
68938;SDS011;59064;45.294;11.816;2022-11-20T04:34:35;4.90;;;2.60;;
68938;SDS011;59064;45.294;11.816;2022-11-20T04:37:01;5.50;;;3.10;;
68938;SDS011;59064;45.294;11.816;2022-11-20T04:39:26;6.40;;;2.70;;
68938;SDS011;59064;45.294;11.816;2022-11-20T04:41:52;6.30;;;2.50;;
68938;SDS011;59064;45.294;11.816;2022-11-20T04:44:37;5.30;;;2.60;;
68938;SDS011;59064;45.294;11.816;2022-11-20T04:47:02;5.50;;;2.90;;
68938;SDS011;59064;45.294;11.816;2022-11-20T04:49:28;4.50;;;2.30;;
68938;SDS011;59064;45.294;11.816;2022-11-20T04:51:54;4.50;;;2.50;;
68938;SDS011;59064;45.294;11.816;2022-11-20T04:54:19;5.00;;;2.50;;
68938;SDS011;59064;45.294;11.816;2022-11-20T04:56:47;4.70;;;2.50;;
68938;SDS011;59064;45.294;11.816;2022-11-20T04:59:13;4.80;;;2.70;;
68938;SDS011;59064;45.294;11.816;2022-11-20T05:01:38;5.80;;;2.70;;
68938;SDS011;59064;45.294;11.816;2022-11-20T05:04:04;5.10;;;2.60;;
68938;SDS011;59064;45.294;11.816;2022-11-20T05:06:30;4.60;;;2.30;;
68938;SDS011;59064;45.294;11.816;2022-11-20T05:08:56;4.20;;;2.30;;
68938;SDS011;59064;45.294;11.816;2022-11-20T05:11:22;5.00;;;2.50;;
68938;SDS011;59064;45.294;11.816;2022-11-20T05:13:48;5.30;;;2.50;;
68938;SDS011;59064;45.294;11.816;2022-11-20T05:16:16;5.00;;;2.90;;
68938;SDS011;59064;45.294;11.816;2022-11-20T05:18:43;5.30;;;2.80;;
68938;SDS011;59064;45.294;11.816;2022-11-20T05:21:09;5.00;;;2.90;;
68938;SDS011;59064;45.294;11.816;2022-11-20T05:23:35;4.20;;;2.10;;
68938;SDS011;59064;45.294;11.816;2022-11-20T05:26:01;6.10;;;2.50;;
68938;SDS011;59064;45.294;11.816;2022-11-20T05:28:28;4.90;;;2.50;;
68938;SDS011;59064;45.294;11.816;2022-11-20T05:30:54;4.00;;;2.40;;
68938;SDS011;59064;45.294;11.816;2022-11-20T05:33:20;4.30;;;2.30;;
68938;SDS011;59064;45.294;11.816;2022-11-20T05:35:46;5.30;;;2.70;;
68938;SDS011;59064;45.294;11.816;2022-11-20T05:38:13;4.60;;;2.70;;
68938;SDS011;59064;45.294;11.816;2022-11-20T05:40:38;5.80;;;2.40;;
68938;SDS011;59064;45.294;11.816;2022-11-20T05:43:03;4.40;;;2.50;;
68938;SDS011;59064;45.294;11.816;2022-11-20T05:45:29;4.70;;;2.60;;
68938;SDS011;59064;45.294;11.816;2022-11-20T05:47:57;4.80;;;2.40;;
68938;SDS011;59064;45.294;11.816;2022-11-20T05:50:24;5.00;;;2.70;;
68938;SDS011;59064;45.294;11.816;2022-11-20T05:52:50;4.30;;;2.50;;
68938;SDS011;59064;45.294;11.816;2022-11-20T05:55:15;4.10;;;2.30;;
68938;SDS011;59064;45.294;11.816;2022-11-20T05:57:41;4.60;;;2.80;;
68938;SDS011;59064;45.294;11.816;2022-11-20T06:00:07;4.50;;;2.30;;
68938;SDS011;59064;45.294;11.816;2022-11-20T06:02:34;6.10;;;3.10;;
68938;SDS011;59064;45.294;11.816;2022-11-20T06:05:00;4.70;;;2.90;;
68938;SDS011;59064;45.294;11.816;2022-11-20T06:07:25;5.40;;;2.70;;
68938;SDS011;59064;45.294;11.816;2022-11-20T06:09:51;4.60;;;2.30;;
68938;SDS011;59064;45.294;11.816;2022-11-20T06:12:16;5.00;;;2.60;;
68938;SDS011;59064;45.294;11.816;2022-11-20T06:14:42;5.70;;;3.20;;
68938;SDS011;59064;45.294;11.816;2022-11-20T06:17:07;5.50;;;3.20;;
68938;SDS011;59064;45.294;11.816;2022-11-20T06:19:33;6.70;;;4.50;;
68938;SDS011;59064;45.294;11.816;2022-11-20T06:21:58;6.60;;;4.00;;
68938;SDS011;59064;45.294;11.816;2022-11-20T06:24:24;12.80;;;6.70;;
68938;SDS011;59064;45.294;11.816;2022-11-20T06:26:50;6.10;;;3.40;;
68938;SDS011;59064;45.294;11.816;2022-11-20T06:29:15;11.60;;;8.40;;
68938;SDS011;59064;45.294;11.816;2022-11-20T06:31:41;7.30;;;5.50;;
68938;SDS011;59064;45.294;11.816;2022-11-20T06:34:07;8.10;;;5.20;;
68938;SDS011;59064;45.294;11.816;2022-11-20T06:36:33;6.70;;;4.20;;
68938;SDS011;59064;45.294;11.816;2022-11-20T06:38:59;5.70;;;2.70;;
68938;SDS011;59064;45.294;11.816;2022-11-20T06:41:25;6.00;;;3.90;;
68938;SDS011;59064;45.294;11.816;2022-11-20T06:43:51;5.70;;;3.40;;
68938;SDS011;59064;45.294;11.816;2022-11-20T06:46:17;6.80;;;3.70;;
68938;SDS011;59064;45.294;11.816;2022-11-20T06:48:43;7.10;;;4.60;;
68938;SDS011;59064;45.294;11.816;2022-11-20T06:51:09;6.00;;;3.40;;
68938;SDS011;59064;45.294;11.816;2022-11-20T06:53:35;6.70;;;4.50;;
68938;SDS011;59064;45.294;11.816;2022-11-20T06:56:01;5.40;;;3.50;;
68938;SDS011;59064;45.294;11.816;2022-11-20T06:58:28;6.80;;;3.50;;
68938;SDS011;59064;45.294;11.816;2022-11-20T07:00:58;6.00;;;3.80;;
68938;SDS011;59064;45.294;11.816;2022-11-20T07:03:25;6.40;;;3.60;;
68938;SDS011;59064;45.294;11.816;2022-11-20T07:05:50;8.30;;;3.60;;
68938;SDS011;59064;45.294;11.816;2022-11-20T07:08:20;6.80;;;3.70;;
68938;SDS011;59064;45.294;11.816;2022-11-20T07:10:45;6.70;;;3.80;;
68938;SDS011;59064;45.294;11.816;2022-11-20T07:13:11;5.90;;;3.60;;
68938;SDS011;59064;45.294;11.816;2022-11-20T07:15:36;8.80;;;3.50;;
68938;SDS011;59064;45.294;11.816;2022-11-20T07:18:02;6.60;;;3.60;;
68938;SDS011;59064;45.294;11.816;2022-11-20T07:20:28;5.60;;;3.00;;
68938;SDS011;59064;45.294;11.816;2022-11-20T07:22:54;5.00;;;3.00;;
68938;SDS011;59064;45.294;11.816;2022-11-20T07:25:20;7.20;;;3.10;;
68938;SDS011;59064;45.294;11.816;2022-11-20T07:27:46;5.40;;;3.20;;
68938;SDS011;59064;45.294;11.816;2022-11-20T07:30:12;6.00;;;3.20;;
68938;SDS011;59064;45.294;11.816;2022-11-20T07:32:39;5.50;;;2.90;;
68938;SDS011;59064;45.294;11.816;2022-11-20T07:35:04;6.50;;;3.50;;
68938;SDS011;59064;45.294;11.816;2022-11-20T07:37:30;5.90;;;2.80;;
68938;SDS011;59064;45.294;11.816;2022-11-20T07:39:59;5.00;;;3.00;;
68938;SDS011;59064;45.294;11.816;2022-11-20T07:42:24;4.70;;;2.90;;
68938;SDS011;59064;45.294;11.816;2022-11-20T07:44:50;5.50;;;3.00;;
68938;SDS011;59064;45.294;11.816;2022-11-20T07:47:19;6.30;;;3.10;;
68938;SDS011;59064;45.294;11.816;2022-11-20T07:49:46;5.40;;;2.70;;
68938;SDS011;59064;45.294;11.816;2022-11-20T07:52:11;5.60;;;3.40;;
68938;SDS011;59064;45.294;11.816;2022-11-20T07:54:36;5.30;;;2.80;;
68938;SDS011;59064;45.294;11.816;2022-11-20T07:57:03;6.20;;;3.10;;
68938;SDS011;59064;45.294;11.816;2022-11-20T07:59:29;4.50;;;2.50;;
68938;SDS011;59064;45.294;11.816;2022-11-20T08:01:54;6.80;;;3.00;;
68938;SDS011;59064;45.294;11.816;2022-11-20T08:04:20;5.80;;;2.60;;
68938;SDS011;59064;45.294;11.816;2022-11-20T08:06:45;24.90;;;14.00;;
68938;SDS011;59064;45.294;11.816;2022-11-20T08:09:11;10.00;;;6.40;;
68938;SDS011;59064;45.294;11.816;2022-11-20T08:11:36;6.60;;;3.90;;
68938;SDS011;59064;45.294;11.816;2022-11-20T08:14:20;7.60;;;4.70;;
68938;SDS011;59064;45.294;11.816;2022-11-20T08:16:47;7.20;;;4.60;;
68938;SDS011;59064;45.294;11.816;2022-11-20T08:19:13;8.60;;;4.50;;
68938;SDS011;59064;45.294;11.816;2022-11-20T08:21:40;5.20;;;3.60;;
68938;SDS011;59064;45.294;11.816;2022-11-20T08:24:07;7.40;;;4.60;;
68938;SDS011;59064;45.294;11.816;2022-11-20T08:26:33;6.50;;;3.80;;
68938;SDS011;59064;45.294;11.816;2022-11-20T08:28:59;5.00;;;3.00;;
68938;SDS011;59064;45.294;11.816;2022-11-20T08:31:25;4.50;;;3.10;;
68938;SDS011;59064;45.294;11.816;2022-11-20T08:33:52;4.30;;;2.70;;
68938;SDS011;59064;45.294;11.816;2022-11-20T08:36:18;7.40;;;3.80;;
68938;SDS011;59064;45.294;11.816;2022-11-20T08:38:49;5.10;;;3.30;;
68938;SDS011;59064;45.294;11.816;2022-11-20T08:41:16;5.00;;;3.20;;
68938;SDS011;59064;45.294;11.816;2022-11-20T08:44:10;6.20;;;3.00;;
68938;SDS011;59064;45.294;11.816;2022-11-20T08:46:39;6.10;;;2.70;;
68938;SDS011;59064;45.294;11.816;2022-11-20T08:49:06;5.20;;;2.80;;
68938;SDS011;59064;45.294;11.816;2022-11-20T08:51:34;5.40;;;2.40;;
68938;SDS011;59064;45.294;11.816;2022-11-20T08:54:04;4.50;;;2.20;;
68938;SDS011;59064;45.294;11.816;2022-11-20T08:56:30;4.70;;;2.30;;
68938;SDS011;59064;45.294;11.816;2022-11-20T08:58:59;5.80;;;2.70;;
68938;SDS011;59064;45.294;11.816;2022-11-20T09:01:25;4.50;;;2.40;;
68938;SDS011;59064;45.294;11.816;2022-11-20T09:03:51;5.70;;;2.70;;
68938;SDS011;59064;45.294;11.816;2022-11-20T09:06:17;4.50;;;2.50;;
68938;SDS011;59064;45.294;11.816;2022-11-20T09:08:43;4.70;;;2.80;;
68938;SDS011;59064;45.294;11.816;2022-11-20T09:11:09;6.10;;;2.70;;
68938;SDS011;59064;45.294;11.816;2022-11-20T09:13:35;6.40;;;3.10;;
68938;SDS011;59064;45.294;11.816;2022-11-20T09:16:03;6.00;;;3.30;;
68938;SDS011;59064;45.294;11.816;2022-11-20T09:18:31;5.50;;;2.60;;
68938;SDS011;59064;45.294;11.816;2022-11-20T09:20:58;5.50;;;3.20;;
68938;SDS011;59064;45.294;11.816;2022-11-20T09:23:24;8.40;;;3.50;;
68938;SDS011;59064;45.294;11.816;2022-11-20T09:25:51;8.70;;;4.10;;
68938;SDS011;59064;45.294;11.816;2022-11-20T09:28:18;8.00;;;4.30;;
68938;SDS011;59064;45.294;11.816;2022-11-20T09:30:43;8.00;;;3.60;;
68938;SDS011;59064;45.294;11.816;2022-11-20T09:33:09;4.40;;;2.10;;
68938;SDS011;59064;45.294;11.816;2022-11-20T09:35:35;4.40;;;1.80;;
68938;SDS011;59064;45.294;11.816;2022-11-20T09:38:04;5.10;;;2.00;;
68938;SDS011;59064;45.294;11.816;2022-11-20T09:40:31;5.10;;;1.90;;
68938;SDS011;59064;45.294;11.816;2022-11-20T09:50:54;5.50;;;1.60;;
68938;SDS011;59064;45.294;11.816;2022-11-20T09:55:56;4.20;;;1.50;;
68938;SDS011;59064;45.294;11.816;2022-11-20T09:58:29;3.50;;;1.50;;
68938;SDS011;59064;45.294;11.816;2022-11-20T10:01:00;3.80;;;1.60;;
68938;SDS011;59064;45.294;11.816;2022-11-20T10:06:17;6.40;;;2.50;;
68938;SDS011;59064;45.294;11.816;2022-11-20T10:08:48;5.40;;;2.10;;
68938;SDS011;59064;45.294;11.816;2022-11-20T10:16:45;3.60;;;1.10;;
68938;SDS011;59064;45.294;11.816;2022-11-20T10:22:27;2.60;;;0.70;;
68938;SDS011;59064;45.294;11.816;2022-11-20T10:28:16;4.20;;;1.10;;
68938;SDS011;59064;45.294;11.816;2022-11-20T10:30:59;2.40;;;0.80;;
68938;SDS011;59064;45.294;11.816;2022-11-20T10:33:29;3.70;;;0.90;;
68938;SDS011;59064;45.294;11.816;2022-11-20T10:38:44;4.70;;;1.60;;
68938;SDS011;59064;45.294;11.816;2022-11-20T10:41:17;5.10;;;1.00;;
68938;SDS011;59064;45.294;11.816;2022-11-20T10:44:01;3.00;;;0.80;;
68938;SDS011;59064;45.294;11.816;2022-11-20T10:49:48;1.60;;;0.60;;
68938;SDS011;59064;45.294;11.816;2022-11-20T10:58:00;3.40;;;0.80;;
68938;SDS011;59064;45.294;11.816;2022-11-20T11:00:47;4.50;;;1.10;;
68938;SDS011;59064;45.294;11.816;2022-11-20T11:03:23;4.50;;;0.90;;
68938;SDS011;59064;45.294;11.816;2022-11-20T11:09:09;2.70;;;0.90;;
68938;SDS011;59064;45.294;11.816;2022-11-20T11:11:38;2.00;;;0.90;;
68938;SDS011;59064;45.294;11.816;2022-11-20T11:14:08;2.90;;;1.00;;
68938;SDS011;59064;45.294;11.816;2022-11-20T11:16:35;4.20;;;1.40;;
68938;SDS011;59064;45.294;11.816;2022-11-20T11:19:11;3.10;;;1.30;;
68938;SDS011;59064;45.294;11.816;2022-11-20T11:21:38;5.60;;;3.00;;
68938;SDS011;59064;45.294;11.816;2022-11-20T11:24:21;8.30;;;4.20;;
68938;SDS011;59064;45.294;11.816;2022-11-20T11:26:50;4.30;;;1.10;;
68938;SDS011;59064;45.294;11.816;2022-11-20T11:29:31;4.80;;;1.10;;
68938;SDS011;59064;45.294;11.816;2022-11-20T11:32:07;2.80;;;1.10;;
68938;SDS011;59064;45.294;11.816;2022-11-20T11:34:38;3.50;;;1.00;;
68938;SDS011;59064;45.294;11.816;2022-11-20T11:37:04;6.10;;;2.30;;
68938;SDS011;59064;45.294;11.816;2022-11-20T11:39:40;5.00;;;1.40;;
68938;SDS011;59064;45.294;11.816;2022-11-20T11:42:07;4.30;;;1.50;;
68938;SDS011;59064;45.294;11.816;2022-11-20T11:44:38;3.70;;;1.60;;
68938;SDS011;59064;45.294;11.816;2022-11-20T11:47:30;3.60;;;1.60;;
68938;SDS011;59064;45.294;11.816;2022-11-20T11:52:56;4.90;;;2.00;;
68938;SDS011;59064;45.294;11.816;2022-11-20T11:58:44;4.30;;;2.10;;
68938;SDS011;59064;45.294;11.816;2022-11-20T12:01:28;4.20;;;2.00;;
68938;SDS011;59064;45.294;11.816;2022-11-20T12:07:07;3.20;;;1.60;;
68938;SDS011;59064;45.294;11.816;2022-11-20T12:09:51;4.30;;;1.60;;
68938;SDS011;59064;45.294;11.816;2022-11-20T12:12:20;5.20;;;2.20;;
68938;SDS011;59064;45.294;11.816;2022-11-20T12:14:52;3.70;;;1.90;;
68938;SDS011;59064;45.294;11.816;2022-11-20T12:17:19;6.40;;;2.70;;
68938;SDS011;59064;45.294;11.816;2022-11-20T12:19:45;4.90;;;2.60;;
68938;SDS011;59064;45.294;11.816;2022-11-20T12:25:07;5.90;;;2.70;;
68938;SDS011;59064;45.294;11.816;2022-11-20T12:30:38;6.40;;;2.90;;
68938;SDS011;59064;45.294;11.816;2022-11-20T12:33:19;5.20;;;2.40;;
68938;SDS011;59064;45.294;11.816;2022-11-20T12:41:58;4.70;;;2.40;;
68938;SDS011;59064;45.294;11.816;2022-11-20T12:44:58;4.40;;;1.90;;
68938;SDS011;59064;45.294;11.816;2022-11-20T12:48:03;4.20;;;2.20;;
68938;SDS011;59064;45.294;11.816;2022-11-20T12:53:39;3.60;;;2.00;;
68938;SDS011;59064;45.294;11.816;2022-11-20T12:56:29;4.30;;;2.40;;
68938;SDS011;59064;45.294;11.816;2022-11-20T13:02:23;6.90;;;3.30;;
68938;SDS011;59064;45.294;11.816;2022-11-20T13:07:37;3.70;;;1.70;;
68938;SDS011;59064;45.294;11.816;2022-11-20T13:10:03;4.20;;;1.80;;
68938;SDS011;59064;45.294;11.816;2022-11-20T13:12:46;4.30;;;2.10;;
68938;SDS011;59064;45.294;11.816;2022-11-20T13:18:25;4.20;;;2.10;;
68938;SDS011;59064;45.294;11.816;2022-11-20T13:20:52;4.10;;;1.90;;
68938;SDS011;59064;45.294;11.816;2022-11-20T13:23:25;4.00;;;2.30;;
68938;SDS011;59064;45.294;11.816;2022-11-20T13:26:06;5.10;;;2.40;;
68938;SDS011;59064;45.294;11.816;2022-11-20T13:28:42;4.80;;;2.20;;
68938;SDS011;59064;45.294;11.816;2022-11-20T13:31:09;5.20;;;2.30;;
68938;SDS011;59064;45.294;11.816;2022-11-20T13:33:50;5.80;;;2.40;;
68938;SDS011;59064;45.294;11.816;2022-11-20T13:36:23;4.40;;;2.10;;
68938;SDS011;59064;45.294;11.816;2022-11-20T13:39:09;4.70;;;2.00;;
68938;SDS011;59064;45.294;11.816;2022-11-20T13:41:35;4.50;;;2.10;;
68938;SDS011;59064;45.294;11.816;2022-11-20T13:44:10;5.30;;;2.10;;
68938;SDS011;59064;45.294;11.816;2022-11-20T13:46:54;4.60;;;2.20;;
68938;SDS011;59064;45.294;11.816;2022-11-20T13:52:01;6.50;;;2.40;;
68938;SDS011;59064;45.294;11.816;2022-11-20T14:02:35;5.20;;;2.50;;
68938;SDS011;59064;45.294;11.816;2022-11-20T14:05:01;4.20;;;2.40;;
68938;SDS011;59064;45.294;11.816;2022-11-20T14:07:38;4.30;;;2.30;;
68938;SDS011;59064;45.294;11.816;2022-11-20T14:10:19;4.60;;;2.40;;
68938;SDS011;59064;45.294;11.816;2022-11-20T14:12:49;6.20;;;3.40;;
68938;SDS011;59064;45.294;11.816;2022-11-20T14:15:29;12.50;;;6.10;;
68938;SDS011;59064;45.294;11.816;2022-11-20T14:17:56;7.00;;;2.50;;
68938;SDS011;59064;45.294;11.816;2022-11-20T14:20:26;5.20;;;2.70;;
68938;SDS011;59064;45.294;11.816;2022-11-20T14:22:54;4.70;;;2.60;;
68938;SDS011;59064;45.294;11.816;2022-11-20T14:25:24;4.70;;;2.50;;
68938;SDS011;59064;45.294;11.816;2022-11-20T14:27:58;6.00;;;3.30;;
68938;SDS011;59064;45.294;11.816;2022-11-20T14:30:29;7.50;;;2.80;;
68938;SDS011;59064;45.294;11.816;2022-11-20T14:33:01;5.70;;;3.00;;
68938;SDS011;59064;45.294;11.816;2022-11-20T14:35:34;4.80;;;2.70;;
68938;SDS011;59064;45.294;11.816;2022-11-20T14:38:02;4.50;;;2.60;;
68938;SDS011;59064;45.294;11.816;2022-11-20T14:40:29;5.00;;;2.70;;
68938;SDS011;59064;45.294;11.816;2022-11-20T14:42:57;4.80;;;2.90;;
68938;SDS011;59064;45.294;11.816;2022-11-20T14:45:24;5.30;;;3.50;;
68938;SDS011;59064;45.294;11.816;2022-11-20T14:47:51;4.90;;;3.00;;
68938;SDS011;59064;45.294;11.816;2022-11-20T14:50:20;5.20;;;2.90;;
68938;SDS011;59064;45.294;11.816;2022-11-20T14:52:52;4.90;;;2.90;;
68938;SDS011;59064;45.294;11.816;2022-11-20T14:55:29;5.10;;;2.80;;
68938;SDS011;59064;45.294;11.816;2022-11-20T14:57:58;5.40;;;3.30;;
68938;SDS011;59064;45.294;11.816;2022-11-20T15:00:29;6.70;;;3.40;;
68938;SDS011;59064;45.294;11.816;2022-11-20T15:02:55;6.20;;;3.10;;
68938;SDS011;59064;45.294;11.816;2022-11-20T15:05:24;5.70;;;3.10;;
68938;SDS011;59064;45.294;11.816;2022-11-20T15:08:09;5.90;;;3.50;;
68938;SDS011;59064;45.294;11.816;2022-11-20T15:10:36;7.50;;;4.10;;
68938;SDS011;59064;45.294;11.816;2022-11-20T15:13:10;5.60;;;3.60;;
68938;SDS011;59064;45.294;11.816;2022-11-20T15:18:17;6.20;;;3.50;;
68938;SDS011;59064;45.294;11.816;2022-11-20T15:20:45;7.70;;;4.30;;
68938;SDS011;59064;45.294;11.816;2022-11-20T15:23:12;15.20;;;8.80;;
68938;SDS011;59064;45.294;11.816;2022-11-20T15:25:39;20.60;;;9.90;;
68938;SDS011;59064;45.294;11.816;2022-11-20T15:31:03;11.80;;;6.10;;
68938;SDS011;59064;45.294;11.816;2022-11-20T15:33:29;14.00;;;7.30;;
68938;SDS011;59064;45.294;11.816;2022-11-20T15:35:56;11.10;;;6.60;;
68938;SDS011;59064;45.294;11.816;2022-11-20T15:38:22;13.40;;;8.90;;
68938;SDS011;59064;45.294;11.816;2022-11-20T15:40:47;18.60;;;13.00;;
68938;SDS011;59064;45.294;11.816;2022-11-20T15:43:13;14.70;;;9.70;;
68938;SDS011;59064;45.294;11.816;2022-11-20T15:45:40;14.60;;;9.00;;
68938;SDS011;59064;45.294;11.816;2022-11-20T15:48:15;14.40;;;7.60;;
68938;SDS011;59064;45.294;11.816;2022-11-20T15:50:54;7.60;;;4.50;;
68938;SDS011;59064;45.294;11.816;2022-11-20T15:53:40;8.80;;;4.70;;
68938;SDS011;59064;45.294;11.816;2022-11-20T15:56:13;10.70;;;5.00;;
68938;SDS011;59064;45.294;11.816;2022-11-20T15:58:39;10.20;;;5.10;;
68938;SDS011;59064;45.294;11.816;2022-11-20T16:01:05;17.20;;;8.20;;
68938;SDS011;59064;45.294;11.816;2022-11-20T16:03:34;11.50;;;6.10;;
68938;SDS011;59064;45.294;11.816;2022-11-20T16:06:00;11.30;;;6.00;;
68938;SDS011;59064;45.294;11.816;2022-11-20T16:08:25;13.80;;;6.70;;
68938;SDS011;59064;45.294;11.816;2022-11-20T16:10:51;13.30;;;7.20;;
68938;SDS011;59064;45.294;11.816;2022-11-20T16:13:17;14.90;;;7.80;;
68938;SDS011;59064;45.294;11.816;2022-11-20T16:16:02;23.00;;;11.90;;
68938;SDS011;59064;45.294;11.816;2022-11-20T16:18:49;21.40;;;11.10;;